createdAt,value
2018-04-06T00:02:23.005Z,1.80
2018-04-06T00:04:51.257Z,1.73
2018-04-06T00:07:20.295Z,1.83
2018-04-06T00:09:48.547Z,1.77
2018-04-06T00:12:16.824Z,1.33
2018-04-06T00:14:45.207Z,2.00
2018-04-06T00:17:13.521Z,2.00
2018-04-06T00:19:41.763Z,2.37
2018-04-06T00:22:10.040Z,1.57
2018-04-06T00:24:38.299Z,1.63
2018-04-06T00:27:06.579Z,2.20
2018-04-06T00:29:34.837Z,2.23
2018-04-06T00:32:03.972Z,3.57
2018-04-06T00:34:32.265Z,3.83
2018-04-06T00:37:00.512Z,2.50
2018-04-06T00:39:28.808Z,2.23
2018-04-06T00:41:57.087Z,1.70
2018-04-06T00:44:25.584Z,2.60
2018-04-06T00:46:53.823Z,2.40
2018-04-06T00:49:22.109Z,2.50
2018-04-06T00:51:50.368Z,2.80
2018-04-06T00:54:18.635Z,2.20
2018-04-06T00:56:46.897Z,2.43
2018-04-06T00:59:15.958Z,2.03
2018-04-06T01:01:44.215Z,3.63
2018-04-06T01:04:12.616Z,2.33
2018-04-06T01:06:40.877Z,1.83
2018-04-06T01:09:09.242Z,1.97
2018-04-06T01:11:37.565Z,2.80
2018-04-06T01:14:05.852Z,2.47
2018-04-06T01:16:34.891Z,3.33
2018-04-06T01:19:03.182Z,2.10
2018-04-06T01:21:31.448Z,3.63
2018-04-06T01:23:59.732Z,2.70
2018-04-06T01:26:28.015Z,3.10
2018-04-06T01:28:57.067Z,3.37
2018-04-06T01:31:25.337Z,3.07
2018-04-06T01:33:53.628Z,4.03
2018-04-06T01:36:21.899Z,3.43
2018-04-06T01:38:50.280Z,3.10
2018-04-06T01:41:18.535Z,4.00
2018-04-06T01:43:46.939Z,5.00
2018-04-06T01:46:15.202Z,5.10
2018-04-06T01:48:43.493Z,5.90
2018-04-06T01:51:11.753Z,5.20
2018-04-06T01:53:40.025Z,5.30
2018-04-06T01:56:08.429Z,5.70
2018-04-06T01:58:36.701Z,5.30
2018-04-06T02:01:05.067Z,5.00
2018-04-06T02:03:33.334Z,6.10
2018-04-06T02:06:01.612Z,5.50
2018-04-06T02:08:29.881Z,4.43
2018-04-06T02:10:58.164Z,5.10
2018-04-06T02:13:26.469Z,5.30
2018-04-06T02:15:54.761Z,5.43
2018-04-06T02:18:24.523Z,5.83
2018-04-06T02:20:52.818Z,5.77
2018-04-06T02:23:21.077Z,6.67
2018-04-06T02:25:49.384Z,5.90
2018-04-06T02:28:17.635Z,7.60
2018-04-06T02:30:45.971Z,6.27
2018-04-06T02:33:14.246Z,5.70
2018-04-06T02:35:44.147Z,7.10
2018-04-06T02:38:12.419Z,6.17
2018-04-06T02:40:40.780Z,6.87
2018-04-06T02:43:09.172Z,6.60
2018-04-06T02:45:37.532Z,6.90
2018-04-06T02:48:05.784Z,8.37
2018-04-06T02:50:34.192Z,4.73
2018-04-06T02:53:02.457Z,5.23
2018-04-06T02:55:30.736Z,4.30
2018-04-06T02:57:59.043Z,3.90
2018-04-06T03:00:28.129Z,3.93
2018-04-06T03:02:57.203Z,3.53
2018-04-06T03:05:25.509Z,3.40
2018-04-06T03:07:54.536Z,3.40
2018-04-06T03:10:22.811Z,4.37
2018-04-06T03:12:51.063Z,3.50
2018-04-06T03:15:19.359Z,2.60
2018-04-06T03:17:47.788Z,2.93
2018-04-06T03:20:16.083Z,2.77
2018-04-06T03:22:44.546Z,3.20
2018-04-06T03:25:12.796Z,3.67
2018-04-06T03:27:41.204Z,2.80
2018-04-06T03:30:09.482Z,2.60
2018-04-06T03:32:37.777Z,3.37
2018-04-06T03:35:06.803Z,2.53
2018-04-06T03:37:35.081Z,3.70
2018-04-06T03:40:03.378Z,3.00
2018-04-06T03:42:31.672Z,3.20
2018-04-06T03:44:59.949Z,3.23
2018-04-06T03:47:28.238Z,2.63
2018-04-06T03:49:56.517Z,2.70
2018-04-06T03:52:24.796Z,2.50
2018-04-06T03:54:53.085Z,2.50
2018-04-06T03:57:21.450Z,2.80
2018-04-06T03:59:50.490Z,3.50
2018-04-06T04:02:18.785Z,3.13
2018-04-06T04:04:47.044Z,2.93
2018-04-06T04:07:15.301Z,3.30
2018-04-06T04:09:43.734Z,2.07
2018-04-06T04:12:12.009Z,3.23
2018-04-06T04:14:40.292Z,3.30
2018-04-06T04:17:09.338Z,4.20
2018-04-06T04:19:37.645Z,4.63
2018-04-06T04:22:05.909Z,3.93
2018-04-06T04:24:34.306Z,4.60
2018-04-06T04:27:02.585Z,4.90
2018-04-06T04:29:32.367Z,5.97
2018-04-06T04:32:00.671Z,4.87
2018-04-06T04:34:29.000Z,4.60
2018-04-06T04:36:58.050Z,4.97
2018-04-06T04:39:26.337Z,5.27
2018-04-06T04:41:54.612Z,6.80
2018-04-06T04:44:22.912Z,6.63
2018-04-06T04:46:51.936Z,5.97
2018-04-06T04:49:20.248Z,5.47
2018-04-06T04:51:48.507Z,6.90
2018-04-06T04:54:17.106Z,6.53
2018-04-06T04:56:45.368Z,7.63
2018-04-06T04:59:13.631Z,8.10
2018-04-06T05:01:41.917Z,8.03
2018-04-06T05:04:10.179Z,8.40
2018-04-06T05:06:38.478Z,8.73
2018-04-06T05:09:06.750Z,9.63
2018-04-06T05:11:35.033Z,7.90
2018-04-06T05:14:03.294Z,9.00
2018-04-06T05:16:31.594Z,7.63
2018-04-06T05:18:59.845Z,6.80
2018-04-06T05:21:28.137Z,6.30
2018-04-06T05:23:56.391Z,6.77
2018-04-06T05:26:24.709Z,7.00
2018-04-06T05:28:52.999Z,7.80
2018-04-06T05:31:21.301Z,6.57
2018-04-06T05:33:50.340Z,6.77
2018-04-06T05:36:18.637Z,6.00
2018-04-06T05:38:46.949Z,4.73
2018-04-06T05:41:15.305Z,3.83
2018-04-06T05:43:43.547Z,5.80
2018-04-06T05:46:11.848Z,5.37
2018-04-06T05:48:40.109Z,5.30
2018-04-06T05:51:08.374Z,5.20
2018-04-06T05:53:36.697Z,6.70
2018-04-06T05:56:04.951Z,6.57
2018-04-06T05:58:33.236Z,5.40
2018-04-06T06:01:01.511Z,4.50
2018-04-06T06:03:29.801Z,4.03
2018-04-06T06:05:58.167Z,3.57
2018-04-06T06:08:26.487Z,3.73
2018-04-06T06:10:55.504Z,3.47
2018-04-06T06:13:23.818Z,4.60
2018-04-06T06:15:52.095Z,3.77
2018-04-06T06:18:20.364Z,4.70
2018-04-06T06:20:48.639Z,3.90
2018-04-06T06:23:16.952Z,4.03
2018-04-06T06:25:45.199Z,4.00
2018-04-06T06:28:13.485Z,5.20
2018-04-06T06:30:41.769Z,5.70
2018-04-06T06:33:10.052Z,5.30
2018-04-06T06:35:38.323Z,4.50
2018-04-06T06:38:06.605Z,5.77
2018-04-06T06:40:35.632Z,4.07
2018-04-06T06:43:03.891Z,4.63
2018-04-06T06:45:33.059Z,4.53
2018-04-06T06:48:01.324Z,4.70
2018-04-06T06:50:29.596Z,4.17
2018-04-06T06:52:57.861Z,3.90
2018-04-06T06:55:26.140Z,4.43
2018-04-06T06:57:54.445Z,4.63
2018-04-06T07:00:22.824Z,3.90
2018-04-06T07:02:51.102Z,4.90
2018-04-06T07:05:19.394Z,2.60
2018-04-06T07:07:47.657Z,3.03
2018-04-06T07:10:16.039Z,3.07
2018-04-06T07:12:44.312Z,3.07
2018-04-06T07:15:12.578Z,2.70
2018-04-06T07:17:40.843Z,3.30
2018-04-06T07:20:09.110Z,3.67
2018-04-06T07:22:37.390Z,3.30
2018-04-06T07:25:05.680Z,3.20
2018-04-06T07:27:33.940Z,2.67
2018-04-06T07:30:02.213Z,3.00
2018-04-06T07:32:30.511Z,4.00
2018-04-06T07:34:58.782Z,4.00
2018-04-06T07:37:27.074Z,3.97
2018-04-06T07:39:55.344Z,3.17
2018-04-06T07:42:23.741Z,3.00
2018-04-06T07:44:51.988Z,3.23
2018-04-06T07:47:20.279Z,2.93
2018-04-06T07:49:48.534Z,3.30
2018-04-06T07:52:16.821Z,2.80
2018-04-06T07:54:45.075Z,2.37
2018-04-06T07:57:13.356Z,3.03
2018-04-06T07:59:41.782Z,2.80
2018-04-06T08:02:10.061Z,2.40
2018-04-06T08:04:38.303Z,3.23
2018-04-06T08:07:06.585Z,2.20
2018-04-06T08:09:34.850Z,2.30
2018-04-06T08:12:03.175Z,2.13
2018-04-06T08:14:32.228Z,3.30
2018-04-06T08:17:00.529Z,2.10
2018-04-06T08:19:28.782Z,2.13
2018-04-06T08:21:57.269Z,3.00
2018-04-06T08:24:25.511Z,2.00
2018-04-06T08:26:53.792Z,1.87
2018-04-06T08:29:22.056Z,1.73
2018-04-06T08:31:50.340Z,2.17
2018-04-06T08:34:18.607Z,1.50
2018-04-06T08:36:46.862Z,1.70
2018-04-06T08:39:15.162Z,1.60
2018-04-06T08:41:43.481Z,2.10
2018-04-06T08:44:11.771Z,1.57
2018-04-06T08:46:40.142Z,1.63
2018-04-06T08:49:08.428Z,1.07
2018-04-06T08:51:36.677Z,1.73
2018-04-06T08:54:04.951Z,1.37
2018-04-06T08:56:33.213Z,1.77
2018-04-06T08:59:01.490Z,1.50
2018-04-06T09:01:29.909Z,2.17
2018-04-06T09:03:58.167Z,2.00
2018-04-06T09:06:26.567Z,1.10
2018-04-06T09:08:54.953Z,1.03
2018-04-06T09:11:24.065Z,1.10
2018-04-06T09:13:52.527Z,1.93
2018-04-06T09:16:20.766Z,1.00
2018-04-06T09:18:49.047Z,1.10
2018-04-06T09:21:17.357Z,1.87
2018-04-06T09:23:45.604Z,1.53
2018-04-06T09:26:13.871Z,1.43
2018-04-06T09:28:42.120Z,1.50
2018-04-06T09:31:11.158Z,1.30
2018-04-06T09:33:39.467Z,1.30
2018-04-06T09:36:07.739Z,1.33
2018-04-06T09:38:35.999Z,1.37
2018-04-06T09:41:04.365Z,2.30
2018-04-06T09:43:32.621Z,1.40
2018-04-06T09:46:00.946Z,1.67
2018-04-06T09:48:29.209Z,1.53
2018-04-06T09:50:57.521Z,1.33
2018-04-06T09:53:25.880Z,1.53
2018-04-06T09:55:54.264Z,1.40
2018-04-06T09:58:22.510Z,1.20
2018-04-06T10:00:56.527Z,1.53
2018-04-06T10:03:24.770Z,1.30
2018-04-06T10:05:53.063Z,1.50
2018-04-06T10:08:21.321Z,1.30
2018-04-06T10:10:50.388Z,1.13
2018-04-06T10:13:18.658Z,1.67
2018-04-06T10:15:46.927Z,1.27
2018-04-06T10:18:15.306Z,1.33
2018-04-06T10:20:43.557Z,1.53
2018-04-06T10:23:11.839Z,1.80
2018-04-06T10:25:40.120Z,1.30
2018-04-06T10:28:08.405Z,1.20
2018-04-06T10:30:36.680Z,1.37
2018-04-06T10:33:05.073Z,1.73
2018-04-06T10:35:33.347Z,1.43
2018-04-06T10:38:01.633Z,1.30
2018-04-06T10:40:29.905Z,1.73
2018-04-06T10:42:58.282Z,1.43
2018-04-06T10:45:26.529Z,1.50
2018-04-06T10:47:54.836Z,1.50
2018-04-06T10:50:23.114Z,1.40
2018-04-06T10:52:51.399Z,1.27
2018-04-06T10:55:19.743Z,1.63
2018-04-06T10:57:48.088Z,1.53
2018-04-06T11:00:17.126Z,1.20
2018-04-06T11:02:45.403Z,1.23
2018-04-06T11:05:13.668Z,1.33
2018-04-06T11:07:41.945Z,1.50
2018-04-06T11:10:10.211Z,1.77
2018-04-06T11:12:38.632Z,1.10
2018-04-06T11:15:06.928Z,1.53
2018-04-06T11:17:35.187Z,1.30
2018-04-06T11:20:03.469Z,1.43
2018-04-06T11:22:31.723Z,0.90
2018-04-06T11:25:00.001Z,1.57
2018-04-06T11:27:28.271Z,2.00
2018-04-06T11:29:56.673Z,1.40
2018-04-06T11:32:24.924Z,2.00
2018-04-06T11:34:53.213Z,2.00
2018-04-06T11:37:21.496Z,2.50
2018-04-06T11:39:49.780Z,1.33
2018-04-06T11:42:18.029Z,1.27
2018-04-06T11:44:46.380Z,1.10
2018-04-06T11:47:15.416Z,1.47
2018-04-06T11:49:43.702Z,1.60
2018-04-06T11:52:11.981Z,1.30
2018-04-06T11:54:40.243Z,1.37
2018-04-06T11:57:08.509Z,1.40
2018-04-06T11:59:37.022Z,1.07
2018-04-06T12:02:05.268Z,1.00
2018-04-06T12:04:33.575Z,1.23
2018-04-06T12:07:01.862Z,1.50
2018-04-06T12:09:30.129Z,1.47
2018-04-06T12:11:58.510Z,1.20
2018-04-06T12:14:26.765Z,1.40
2018-04-06T12:16:55.072Z,1.83
2018-04-06T12:19:23.337Z,1.40
2018-04-06T12:21:51.621Z,1.20
2018-04-06T12:24:19.965Z,1.77
2018-04-06T12:26:48.239Z,1.47
2018-04-06T12:29:16.500Z,1.47
2018-04-06T12:31:44.849Z,1.50
2018-04-06T12:34:13.201Z,1.27
2018-04-06T12:36:41.502Z,1.40
2018-04-06T12:39:09.868Z,1.10
2018-04-06T12:41:38.141Z,1.40
2018-04-06T12:44:06.405Z,1.43
2018-04-06T12:46:34.684Z,1.10
2018-04-06T12:49:02.943Z,1.10
2018-04-06T12:51:31.292Z,0.90
2018-04-06T12:54:00.353Z,1.33
2018-04-06T12:56:28.624Z,1.83
2018-04-06T12:58:56.909Z,1.20
2018-04-06T13:01:26.069Z,1.77
2018-04-06T13:03:54.370Z,1.30
2018-04-06T13:06:22.629Z,1.07
2018-04-06T13:08:50.916Z,1.10
2018-04-06T13:11:19.174Z,1.10
2018-04-06T13:13:47.508Z,1.60
2018-04-06T13:16:16.555Z,1.40
2018-04-06T13:18:44.848Z,1.23
2018-04-06T13:21:13.105Z,1.63
2018-04-06T13:23:41.388Z,1.50
2018-04-06T13:26:09.673Z,1.60
2018-04-06T13:28:37.962Z,1.70
2018-04-06T13:31:06.404Z,1.80
2018-04-06T13:33:34.645Z,1.70
2018-04-06T13:36:02.891Z,1.97
2018-04-06T13:38:31.182Z,1.60
2018-04-06T13:41:00.232Z,1.80
2018-04-06T13:43:28.516Z,1.73
2018-04-06T13:45:56.781Z,1.50
2018-04-06T13:48:25.072Z,1.20
2018-04-06T13:50:53.344Z,2.23
2018-04-06T13:53:21.623Z,1.50
2018-04-06T13:55:50.653Z,1.40
2018-04-06T13:58:18.918Z,1.40
2018-04-06T14:00:47.206Z,1.40
2018-04-06T14:03:15.482Z,1.17
2018-04-06T14:05:43.755Z,1.00
2018-04-06T14:08:12.030Z,1.30
2018-04-06T14:10:40.312Z,1.10
2018-04-06T14:13:08.698Z,1.60
2018-04-06T14:15:37.077Z,1.70
2018-04-06T14:18:05.346Z,1.20
2018-04-06T14:20:33.619Z,1.60
2018-04-06T14:23:01.913Z,1.20
2018-04-06T14:25:30.196Z,1.97
2018-04-06T14:27:58.461Z,1.40
2018-04-06T14:30:26.748Z,1.80
2018-04-06T14:32:55.014Z,1.47
2018-04-06T14:35:23.307Z,1.50
2018-04-06T14:37:51.568Z,1.00
2018-04-06T14:40:19.860Z,1.50
2018-04-06T14:42:48.900Z,1.73
2018-04-06T14:45:17.188Z,2.07
2018-04-06T14:47:45.457Z,1.40
2018-04-06T14:50:13.781Z,1.37
2018-04-06T14:52:43.588Z,1.93
2018-04-06T14:55:11.864Z,1.30
2018-04-06T14:57:40.158Z,1.87
2018-04-06T15:00:08.418Z,1.80
2018-04-06T15:02:36.802Z,1.10
2018-04-06T15:05:05.052Z,1.40
2018-04-06T15:07:33.340Z,1.80
2018-04-06T15:10:01.618Z,1.47
2018-04-06T15:12:29.908Z,1.23
2018-04-06T15:14:58.196Z,1.50
2018-04-06T15:17:26.565Z,1.33
2018-04-06T15:19:54.821Z,1.40
2018-04-06T15:22:23.218Z,5.07
2018-04-06T15:24:51.495Z,4.20
2018-04-06T15:27:21.489Z,1.70
2018-04-06T15:29:49.791Z,2.13
2018-04-06T15:32:18.073Z,1.30
2018-04-06T15:34:46.333Z,1.83
2018-04-06T15:37:14.624Z,2.53
2018-04-06T15:39:43.005Z,1.83
2018-04-06T15:42:11.390Z,1.90
2018-04-06T15:44:39.688Z,1.40
2018-04-06T15:47:08.741Z,1.27
2018-04-06T15:49:37.059Z,1.40
2018-04-06T15:52:06.236Z,2.07
2018-04-06T15:54:34.506Z,1.83
2018-04-06T15:57:02.763Z,1.50
2018-04-06T15:59:31.088Z,1.83
2018-04-06T16:01:59.442Z,1.30
2018-04-06T16:04:27.847Z,1.40
2018-04-06T16:06:56.116Z,1.73
2018-04-06T16:09:24.428Z,1.87
2018-04-06T16:11:53.445Z,1.60
2018-04-06T16:14:21.768Z,1.70
2018-04-06T16:16:50.037Z,1.83
2018-04-06T16:19:18.409Z,1.53
2018-04-06T16:21:46.683Z,1.60
2018-04-06T16:24:14.964Z,1.90
2018-04-06T16:26:43.237Z,1.67
2018-04-06T16:29:11.533Z,1.90
2018-04-06T16:31:39.903Z,1.50
2018-04-06T16:34:08.193Z,2.00
2018-04-06T16:36:36.449Z,2.83
2018-04-06T16:39:05.546Z,2.03
2018-04-06T16:41:33.797Z,1.70
2018-04-06T16:44:02.166Z,1.77
2018-04-06T16:46:30.430Z,2.10
2018-04-06T16:48:58.774Z,1.50
2018-04-06T16:51:27.047Z,1.63
2018-04-06T16:53:55.304Z,1.40
2018-04-06T16:56:23.675Z,1.53
2018-04-06T16:58:51.965Z,2.00
2018-04-06T17:01:20.273Z,1.80
2018-04-06T17:03:48.566Z,1.73
2018-04-06T17:06:17.628Z,1.43
2018-04-06T17:08:45.996Z,1.53
2018-04-06T17:11:14.263Z,1.63
2018-04-06T17:13:42.514Z,1.97
2018-04-06T17:16:10.852Z,2.30
2018-04-06T17:18:39.096Z,1.40
2018-04-06T17:21:07.404Z,1.63
2018-04-06T17:23:35.699Z,1.63
2018-04-06T17:26:05.132Z,1.17
2018-04-06T17:28:33.421Z,1.80
2018-04-06T17:31:01.699Z,1.50
2018-04-06T17:33:29.989Z,1.93
2018-04-06T17:35:58.242Z,1.40
2018-04-06T17:38:26.549Z,1.67
2018-04-06T17:40:54.807Z,2.20
2018-04-06T17:43:23.105Z,1.70
2018-04-06T17:45:51.374Z,1.80
2018-04-06T17:48:19.751Z,5.73
2018-04-06T17:50:48.031Z,6.40
2018-04-06T17:53:16.330Z,2.33
2018-04-06T17:55:44.797Z,1.93
2018-04-06T17:58:13.101Z,1.87
2018-04-06T18:00:42.170Z,2.50
2018-04-06T18:03:10.546Z,2.57
2018-04-06T18:05:38.824Z,3.77
2018-04-06T18:08:07.112Z,3.03
2018-04-06T18:10:35.690Z,2.40
2018-04-06T18:13:04.037Z,2.57
2018-04-06T18:15:32.284Z,2.60
2018-04-06T18:18:01.345Z,2.17
2018-04-06T18:20:29.726Z,2.90
2018-04-06T18:22:58.096Z,2.80
2018-04-06T18:25:26.371Z,3.37
2018-04-06T18:27:54.632Z,2.90
2018-04-06T18:30:22.907Z,2.57
2018-04-06T18:32:51.179Z,3.10
2018-04-06T18:35:19.459Z,3.80
2018-04-06T18:37:47.725Z,3.70
2018-04-06T18:40:16.342Z,3.13
2018-04-06T18:42:44.633Z,3.70
2018-04-06T18:45:13.001Z,5.77
2018-04-06T18:47:41.263Z,4.80
2018-04-06T18:50:09.656Z,4.70
2018-04-06T18:52:37.936Z,5.60
2018-04-06T18:55:06.289Z,6.93
2018-04-06T18:57:34.569Z,5.20
2018-04-06T19:00:02.877Z,5.53
2018-04-06T19:02:31.131Z,6.70
2018-04-06T19:04:59.414Z,6.37
2018-04-06T19:07:27.677Z,8.50
2018-04-06T19:09:55.959Z,5.70
2018-04-06T19:12:24.224Z,7.37
2018-04-06T19:14:52.533Z,10.07
2018-04-06T19:17:20.809Z,13.20
2018-04-06T19:19:49.081Z,13.10
2018-04-06T19:22:17.395Z,9.47
2018-04-06T19:24:46.435Z,7.07
2018-04-06T19:27:14.766Z,7.53
2018-04-06T19:29:43.112Z,8.77
2018-04-06T19:32:11.486Z,6.90
2018-04-06T19:34:39.747Z,6.90
2018-04-06T19:37:08.069Z,7.50
2018-04-06T19:39:36.416Z,7.20
2018-04-06T19:42:04.721Z,7.33
2018-04-06T19:44:33.086Z,8.07
2018-04-06T19:47:02.997Z,7.20
2018-04-06T19:49:31.326Z,6.50
2018-04-06T19:51:59.557Z,6.90
2018-04-06T19:54:27.932Z,6.90
2018-04-06T19:56:56.331Z,9.30
2018-04-06T19:59:24.690Z,6.67
2018-04-06T20:01:53.069Z,6.90
2018-04-06T20:04:21.349Z,5.30
2018-04-06T20:06:49.647Z,7.13
2018-04-06T20:09:17.918Z,6.67
2018-04-06T20:11:46.387Z,7.23
2018-04-06T20:14:14.639Z,6.80
2018-04-06T20:16:42.914Z,5.90
2018-04-06T20:19:11.213Z,8.00
2018-04-06T20:21:39.478Z,7.47
2018-04-06T20:24:07.769Z,6.20
2018-04-06T20:26:36.037Z,6.73
2018-04-06T20:29:04.415Z,5.77
2018-04-06T20:31:32.685Z,5.30
2018-04-06T20:34:01.089Z,6.17
2018-04-06T20:36:29.368Z,6.33
2018-04-06T20:38:59.172Z,6.53
2018-04-06T20:41:27.448Z,7.73
2018-04-06T20:43:55.742Z,6.77
2018-04-06T20:46:24.002Z,6.53
2018-04-06T20:48:52.284Z,6.87
2018-04-06T20:51:20.549Z,8.87
2018-04-06T20:53:48.937Z,6.53
2018-04-06T20:56:17.185Z,6.50
2018-04-06T20:58:45.460Z,8.20
2018-04-06T21:01:13.712Z,7.43
2018-04-06T21:03:41.996Z,7.23
2018-04-06T21:06:10.287Z,8.23
2018-04-06T21:08:38.704Z,9.80
2018-04-06T21:11:06.980Z,10.23
2018-04-06T21:13:35.244Z,18.07
2018-04-06T21:16:04.059Z,9.30
2018-04-06T21:18:33.116Z,7.63
2018-04-06T21:21:01.399Z,8.40
2018-04-06T21:23:29.705Z,8.10
2018-04-06T21:25:58.759Z,5.53
2018-04-06T21:28:27.011Z,5.97
2018-04-06T21:30:56.071Z,5.20
2018-04-06T21:33:24.342Z,5.47
2018-04-06T21:35:52.635Z,5.10
2018-04-06T21:38:20.886Z,5.13
2018-04-06T21:40:49.166Z,5.80
2018-04-06T21:43:17.447Z,5.17
2018-04-06T21:45:45.721Z,4.93
2018-04-06T21:48:13.982Z,5.13
2018-04-06T21:50:42.267Z,5.60
2018-04-06T21:53:10.556Z,4.80
2018-04-06T21:55:38.844Z,4.90
2018-04-06T21:58:07.099Z,6.80
2018-04-06T22:00:35.492Z,6.30
2018-04-06T22:03:04.533Z,5.60
2018-04-06T22:05:33.675Z,6.53
2018-04-06T22:08:02.064Z,4.93
2018-04-06T22:10:30.315Z,5.30
2018-04-06T22:12:58.591Z,5.23
2018-04-06T22:15:26.838Z,5.40
2018-04-06T22:17:55.894Z,5.70
2018-04-06T22:20:24.920Z,4.83
2018-04-06T22:22:53.955Z,6.30
2018-04-06T22:25:22.224Z,5.40
2018-04-06T22:27:50.528Z,6.57
2018-04-06T22:30:18.788Z,5.80
2018-04-06T22:32:47.068Z,4.37
2018-04-06T22:35:15.328Z,7.47
2018-04-06T22:37:43.640Z,6.13
2018-04-06T22:40:11.901Z,4.60
2018-04-06T22:42:40.198Z,4.63
2018-04-06T22:45:08.451Z,4.90
2018-04-06T22:47:36.785Z,5.00
2018-04-06T22:50:05.146Z,4.27
2018-04-06T22:52:33.611Z,4.20
2018-04-06T22:55:01.872Z,5.07
2018-04-06T22:57:30.164Z,4.43
2018-04-06T22:59:58.417Z,4.27
2018-04-06T23:02:26.723Z,4.57
2018-04-06T23:04:55.012Z,5.17
2018-04-06T23:07:23.273Z,4.53
2018-04-06T23:09:51.535Z,4.60
2018-04-06T23:12:19.812Z,5.80
2018-04-06T23:14:48.083Z,4.47
2018-04-06T23:17:16.348Z,4.60
2018-04-06T23:19:44.659Z,4.80
2018-04-06T23:22:12.916Z,4.43
2018-04-06T23:24:41.192Z,3.40
2018-04-06T23:27:09.445Z,4.57
2018-04-06T23:29:37.767Z,4.80
2018-04-06T23:32:06.050Z,4.90
2018-04-06T23:34:34.397Z,4.60
2018-04-06T23:37:02.661Z,4.50
2018-04-06T23:39:31.053Z,4.20
2018-04-06T23:41:59.300Z,3.93
2018-04-06T23:44:27.584Z,3.50
2018-04-06T23:46:55.888Z,3.67
2018-04-06T23:49:24.266Z,4.17
2018-04-06T23:51:52.520Z,3.90
2018-04-06T23:54:20.829Z,4.00
2018-04-06T23:56:49.198Z,4.37
2018-04-06T23:59:17.467Z,4.67
